Map

Track Data

SID SEASON NUMBER BASIN SUBBASIN NAME ISO_TIME NATURE LAT LON WMO_WIND WMO_PRES WMO_AGENCY TRACK_TYPE DIST2LAND LANDFALL IFLAG USA_AGENCY USA_ATCF_ID USA_LAT USA_LON USA_RECORD USA_STATUS USA_WIND USA_PRES USA_SSHS USA_R34_NE USA_R34_SE USA_R34_SW USA_R34_NW USA_R50_NE USA_R50_SE USA_R50_SW USA_R50_NW USA_R64_NE USA_R64_SE USA_R64_SW USA_R64_NW USA_POCI USA_ROCI USA_RMW USA_EYE TOKYO_LAT TOKYO_LON TOKYO_GRADE TOKYO_WIND TOKYO_PRES TOKYO_R50_DIR TOKYO_R50_LONG TOKYO_R50_SHORT TOKYO_R30_DIR TOKYO_R30_LONG TOKYO_R30_SHORT TOKYO_LAND CMA_LAT CMA_LON CMA_CAT CMA_WIND CMA_PRES HKO_LAT HKO_LON HKO_CAT HKO_WIND HKO_PRES NEWDELHI_LAT NEWDELHI_LON NEWDELHI_GRADE NEWDELHI_WIND NEWDELHI_PRES NEWDELHI_CI NEWDELHI_DP NEWDELHI_POCI REUNION_LAT REUNION_LON REUNION_TYPE REUNION_WIND REUNION_PRES REUNION_TNUM REUNION_CI REUNION_RMW REUNION_R34_NE REUNION_R34_SE REUNION_R34_SW REUNION_R34_NW REUNION_R50_NE REUNION_R50_SE REUNION_R50_SW REUNION_R50_NW REUNION_R64_NE REUNION_R64_SE REUNION_R64_SW REUNION_R64_NW BOM_LAT BOM_LON BOM_TYPE BOM_WIND BOM_PRES BOM_TNUM BOM_CI BOM_RMW BOM_R34_NE BOM_R34_SE BOM_R34_SW BOM_R34_NW BOM_R50_NE BOM_R50_SE BOM_R50_SW BOM_R50_NW BOM_R64_NE BOM_R64_SE BOM_R64_SW BOM_R64_NW BOM_ROCI BOM_POCI BOM_EYE BOM_POS_METHOD BOM_PRES_METHOD NADI_LAT NADI_LON NADI_CAT NADI_WIND NADI_PRES WELLINGTON_LAT WELLINGTON_LON WELLINGTON_WIND WELLINGTON_PRES DS824_LAT DS824_LON DS824_STAGE DS824_WIND DS824_PRES TD9636_LAT TD9636_LON TD9636_STAGE TD9636_WIND TD9636_PRES TD9635_LAT TD9635_LON TD9635_WIND TD9635_PRES TD9635_ROCI NEUMANN_LAT NEUMANN_LON NEUMANN_CLASS NEUMANN_WIND NEUMANN_PRES MLC_LAT MLC_LON MLC_CLASS MLC_WIND MLC_PRES USA_GUST BOM_GUST BOM_GUST_PER REUNION_GUST REUNION_GUST_PER USA_SEAHGT USA_SEARAD_NE USA_SEARAD_SE USA_SEARAD_SW USA_SEARAD_NW STORM_SPEED STORM_DIR
1946349N09129 1946 77 WP MM NOT_NAMED 1946-12-14 12:00:00 NR 9.10000 129.300 main 331 311 __________O___ -1 9.10000 129.300 2 5 296
1946349N09129 1946 77 WP MM NOT_NAMED 1946-12-14 15:00:00 NR 9.21563 129.058 main 311 280 __________P___ -1 9.21563 129.058 2 5 296
1946349N09129 1946 77 WP MM NOT_NAMED 1946-12-14 18:00:00 NR 9.33497 128.803 main 280 254 __________P___ -1 9.33497 128.803 2 6 295
1946349N09129 1946 77 WP MM NOT_NAMED 1946-12-14 21:00:00 NR 9.46183 128.521 main 254 224 __________P___ -1 9.46183 128.521 2 7 294
1946349N09129 1946 77 WP MM NOT_NAMED 1946-12-15 00:00:00 NR 9.60000 128.200 main 224 194 __________O___ -1 9.60000 128.200 2 7 293
1946349N09129 1946 77 WP MM NOT_NAMED 1946-12-15 03:00:00 NR 9.75258 127.832 main 188 162 __________P___ -1 9.75258 127.832 2 8 293
1946349N09129 1946 77 WP MM NOT_NAMED 1946-12-15 06:00:00 NR 9.92011 127.430 main 153 128 __________P___ -1 9.92011 127.430 2 9 293
1946349N09129 1946 77 WP MM NOT_NAMED 1946-12-15 09:00:00 NR 10.1026 127.013 main 128 109 __________P___ -1 10.1026 127.013 2 9 295
1946349N09129 1946 77 WP MM NOT_NAMED 1946-12-15 12:00:00 NR 10.3000 126.600 main 111 71 __________O___ -1 10.3000 126.600 2 9 297
1946349N09129 1946 77 WP MM NOT_NAMED 1946-12-15 15:00:00 NR 10.4983 126.218 main 71 35 __________P___ -1 10.4983 126.218 2 9 299
1946349N09129 1946 77 WP MM NOT_NAMED 1946-12-15 18:00:00 NR 10.7123 125.842 main 33 22 __________P___ -1 10.7123 125.842 2 9 301
1946349N09129 1946 77 WP MM NOT_NAMED 1946-12-15 21:00:00 NR 10.9451 125.471 main 22 0 __________P___ -1 10.9451 125.471 2 9 304
1946349N09129 1946 77 WP MM NOT_NAMED 1946-12-16 00:00:00 NR 11.2000 125.100 main 10 0 __________O___ -1 11.2000 125.100 2 9 305
1946349N09129 1946 77 WP MM NOT_NAMED 1946-12-16 03:00:00 NR 11.4703 124.713 main 10 10 __________P___ -1 11.4703 124.713 2 9 307
1946349N09129 1946 77 WP MM NOT_NAMED 1946-12-16 06:00:00 NR 11.7625 124.327 main 24 0 __________P___ -1 11.7625 124.327 2 10 309
1946349N09129 1946 77 WP MM NOT_NAMED 1946-12-16 09:00:00 NR 12.0734 123.953 main 0 0 __________P___ -1 12.0734 123.953 2 10 312
1946349N09129 1946 77 WP MM NOT_NAMED 1946-12-16 12:00:00 NR 12.4000 123.600 main 10 10 __________O___ -1 12.4000 123.600 2 9 315
1946349N09129 1946 77 WP MM NOT_NAMED 1946-12-16 15:00:00 NR 12.7391 123.274 main 22 15 __________P___ -1 12.7391 123.274 2 9 318
1946349N09129 1946 77 WP MM NOT_NAMED 1946-12-16 18:00:00 NR 13.0876 122.971 main 32 0 __________P___ -1 13.0876 122.971 2 9 321
1946349N09129 1946 77 WP MM NOT_NAMED 1946-12-16 21:00:00 NR 13.4423 122.682 main 0 0 __________P___ -1 13.4423 122.682 2 9 322
1946349N09129 1946 77 WP MM NOT_NAMED 1946-12-17 00:00:00 NR 13.8000 122.400 main 0 __________O___ -1 13.8000 122.400 2 9 322

Digital Typhoon Data and Search

About IBTrACS Database

This database is a web-friendly format of International Best Track Archive for Climate Stewardship (IBTrACS), a global best track data archive curated by NOAA dating back to 1842.

Updated: 2021-12-03